sensor_id;sensor_type;location;lat;lon;timestamp;P1;durP1;ratioP1;P2;durP2;ratioP2
64633;SDS011;51043;52.406;9.690;2023-04-24T00:02:18;1.73;;;1.40;;
64633;SDS011;51043;52.406;9.690;2023-04-24T00:04:46;2.83;;;1.30;;
64633;SDS011;51043;52.406;9.690;2023-04-24T00:07:15;2.93;;;1.20;;
64633;SDS011;51043;52.406;9.690;2023-04-24T00:09:43;2.03;;;1.40;;
64633;SDS011;51043;52.406;9.690;2023-04-24T00:12:11;3.43;;;1.30;;
64633;SDS011;51043;52.406;9.690;2023-04-24T00:14:39;2.87;;;1.30;;
64633;SDS011;51043;52.406;9.690;2023-04-24T00:17:07;1.87;;;1.40;;
64633;SDS011;51043;52.406;9.690;2023-04-24T00:19:36;1.50;;;1.20;;
64633;SDS011;51043;52.406;9.690;2023-04-24T00:22:04;1.57;;;1.30;;
64633;SDS011;51043;52.406;9.690;2023-04-24T00:24:32;2.97;;;1.20;;
64633;SDS011;51043;52.406;9.690;2023-04-24T00:27:00;1.20;;;1.10;;
64633;SDS011;51043;52.406;9.690;2023-04-24T00:29:28;5.73;;;1.23;;
64633;SDS011;51043;52.406;9.690;2023-04-24T00:31:56;2.10;;;1.20;;
64633;SDS011;51043;52.406;9.690;2023-04-24T00:34:25;1.20;;;1.10;;
64633;SDS011;51043;52.406;9.690;2023-04-24T00:36:54;3.17;;;1.20;;
64633;SDS011;51043;52.406;9.690;2023-04-24T00:39:22;1.80;;;1.20;;
64633;SDS011;51043;52.406;9.690;2023-04-24T00:41:51;2.73;;;1.10;;
64633;SDS011;51043;52.406;9.690;2023-04-24T00:44:19;2.00;;;1.43;;
64633;SDS011;51043;52.406;9.690;2023-04-24T00:46:48;4.23;;;1.37;;
64633;SDS011;51043;52.406;9.690;2023-04-24T00:49:21;2.83;;;1.40;;
64633;SDS011;51043;52.406;9.690;2023-04-24T00:51:49;1.37;;;1.20;;
64633;SDS011;51043;52.406;9.690;2023-04-24T00:54:19;1.63;;;1.10;;
64633;SDS011;51043;52.406;9.690;2023-04-24T00:56:49;2.43;;;1.33;;
64633;SDS011;51043;52.406;9.690;2023-04-24T00:59:17;1.23;;;1.10;;
64633;SDS011;51043;52.406;9.690;2023-04-24T01:01:45;1.40;;;1.30;;
64633;SDS011;51043;52.406;9.690;2023-04-24T01:04:14;1.57;;;1.40;;
64633;SDS011;51043;52.406;9.690;2023-04-24T01:06:44;1.50;;;1.40;;
64633;SDS011;51043;52.406;9.690;2023-04-24T01:09:12;1.20;;;1.10;;
64633;SDS011;51043;52.406;9.690;2023-04-24T01:11:43;1.57;;;1.10;;
64633;SDS011;51043;52.406;9.690;2023-04-24T01:14:11;1.10;;;1.10;;
64633;SDS011;51043;52.406;9.690;2023-04-24T01:16:40;2.40;;;1.30;;
64633;SDS011;51043;52.406;9.690;2023-04-24T01:19:08;2.27;;;1.10;;
64633;SDS011;51043;52.406;9.690;2023-04-24T01:21:37;1.93;;;1.30;;
64633;SDS011;51043;52.406;9.690;2023-04-24T01:24:07;2.57;;;1.30;;
64633;SDS011;51043;52.406;9.690;2023-04-24T01:26:37;2.10;;;1.40;;
64633;SDS011;51043;52.406;9.690;2023-04-24T01:29:05;2.07;;;1.30;;
64633;SDS011;51043;52.406;9.690;2023-04-24T01:31:33;1.23;;;1.20;;
64633;SDS011;51043;52.406;9.690;2023-04-24T01:34:02;1.30;;;1.20;;
64633;SDS011;51043;52.406;9.690;2023-04-24T01:36:30;1.70;;;1.30;;
64633;SDS011;51043;52.406;9.690;2023-04-24T01:39:01;1.63;;;1.30;;
64633;SDS011;51043;52.406;9.690;2023-04-24T01:41:31;1.83;;;1.30;;
64633;SDS011;51043;52.406;9.690;2023-04-24T01:43:59;1.70;;;1.20;;
64633;SDS011;51043;52.406;9.690;2023-04-24T01:46:28;2.13;;;1.30;;
64633;SDS011;51043;52.406;9.690;2023-04-24T01:48:58;1.20;;;1.10;;
64633;SDS011;51043;52.406;9.690;2023-04-24T01:51:28;1.80;;;1.23;;
64633;SDS011;51043;52.406;9.690;2023-04-24T01:53:56;1.50;;;1.20;;
64633;SDS011;51043;52.406;9.690;2023-04-24T01:56:24;1.47;;;1.20;;
64633;SDS011;51043;52.406;9.690;2023-04-24T01:58:57;1.47;;;1.10;;
64633;SDS011;51043;52.406;9.690;2023-04-24T02:01:27;1.53;;;1.27;;
64633;SDS011;51043;52.406;9.690;2023-04-24T02:04:02;4.20;;;1.20;;
64633;SDS011;51043;52.406;9.690;2023-04-24T02:06:30;2.37;;;1.00;;
64633;SDS011;51043;52.406;9.690;2023-04-24T02:08:59;1.77;;;1.17;;
64633;SDS011;51043;52.406;9.690;2023-04-24T02:11:27;1.23;;;1.10;;
64633;SDS011;51043;52.406;9.690;2023-04-24T02:13:57;1.93;;;1.00;;
64633;SDS011;51043;52.406;9.690;2023-04-24T02:16:26;1.33;;;1.20;;
64633;SDS011;51043;52.406;9.690;2023-04-24T02:18:56;1.10;;;1.07;;
64633;SDS011;51043;52.406;9.690;2023-04-24T02:21:24;3.97;;;1.10;;
64633;SDS011;51043;52.406;9.690;2023-04-24T02:23:53;2.00;;;1.10;;
64633;SDS011;51043;52.406;9.690;2023-04-24T02:26:21;1.73;;;1.10;;
64633;SDS011;51043;52.406;9.690;2023-04-24T02:28:51;1.23;;;0.90;;
64633;SDS011;51043;52.406;9.690;2023-04-24T02:31:21;1.07;;;1.00;;
64633;SDS011;51043;52.406;9.690;2023-04-24T02:33:49;3.57;;;1.20;;
64633;SDS011;51043;52.406;9.690;2023-04-24T02:36:17;1.10;;;1.00;;
64633;SDS011;51043;52.406;9.690;2023-04-24T02:38:47;1.27;;;1.07;;
64633;SDS011;51043;52.406;9.690;2023-04-24T02:41:15;1.17;;;1.07;;
64633;SDS011;51043;52.406;9.690;2023-04-24T02:43:43;0.90;;;0.90;;
64633;SDS011;51043;52.406;9.690;2023-04-24T02:46:11;1.27;;;1.17;;
64633;SDS011;51043;52.406;9.690;2023-04-24T02:48:40;1.27;;;1.10;;
64633;SDS011;51043;52.406;9.690;2023-04-24T02:51:08;1.23;;;1.00;;
64633;SDS011;51043;52.406;9.690;2023-04-24T02:53:36;3.90;;;1.30;;
64633;SDS011;51043;52.406;9.690;2023-04-24T02:56:04;1.03;;;1.03;;
64633;SDS011;51043;52.406;9.690;2023-04-24T02:58:32;1.07;;;1.00;;
64633;SDS011;51043;52.406;9.690;2023-04-24T03:01:00;1.93;;;1.10;;
64633;SDS011;51043;52.406;9.690;2023-04-24T03:03:28;1.50;;;1.17;;
64633;SDS011;51043;52.406;9.690;2023-04-24T03:05:58;1.30;;;1.20;;
64633;SDS011;51043;52.406;9.690;2023-04-24T03:08:26;1.30;;;1.20;;
64633;SDS011;51043;52.406;9.690;2023-04-24T03:10:54;1.20;;;1.03;;
64633;SDS011;51043;52.406;9.690;2023-04-24T03:13:22;1.00;;;1.00;;
64633;SDS011;51043;52.406;9.690;2023-04-24T03:15:50;1.03;;;1.00;;
64633;SDS011;51043;52.406;9.690;2023-04-24T03:18:19;1.37;;;0.87;;
64633;SDS011;51043;52.406;9.690;2023-04-24T03:20:49;1.27;;;1.00;;
64633;SDS011;51043;52.406;9.690;2023-04-24T03:23:18;1.57;;;1.00;;
64633;SDS011;51043;52.406;9.690;2023-04-24T03:25:47;2.63;;;1.17;;
64633;SDS011;51043;52.406;9.690;2023-04-24T03:28:18;0.90;;;0.90;;
64633;SDS011;51043;52.406;9.690;2023-04-24T03:30:57;0.90;;;0.90;;
64633;SDS011;51043;52.406;9.690;2023-04-24T03:33:29;1.20;;;1.10;;
64633;SDS011;51043;52.406;9.690;2023-04-24T03:36:00;1.50;;;1.00;;
64633;SDS011;51043;52.406;9.690;2023-04-24T03:38:37;1.50;;;1.07;;
64633;SDS011;51043;52.406;9.690;2023-04-24T03:41:18;1.50;;;1.10;;
64633;SDS011;51043;52.406;9.690;2023-04-24T03:43:54;1.27;;;1.17;;
64633;SDS011;51043;52.406;9.690;2023-04-24T03:46:22;2.30;;;1.10;;
64633;SDS011;51043;52.406;9.690;2023-04-24T03:48:54;1.20;;;1.10;;
64633;SDS011;51043;52.406;9.690;2023-04-24T03:51:26;2.67;;;1.30;;
64633;SDS011;51043;52.406;9.690;2023-04-24T03:54:04;1.47;;;1.00;;
64633;SDS011;51043;52.406;9.690;2023-04-24T03:56:35;0.97;;;0.97;;
64633;SDS011;51043;52.406;9.690;2023-04-24T03:59:03;1.30;;;1.20;;
64633;SDS011;51043;52.406;9.690;2023-04-24T04:01:31;1.63;;;1.17;;
64633;SDS011;51043;52.406;9.690;2023-04-24T04:04:09;1.53;;;1.07;;
64633;SDS011;51043;52.406;9.690;2023-04-24T04:06:38;1.47;;;1.20;;
64633;SDS011;51043;52.406;9.690;2023-04-24T04:09:07;1.47;;;1.00;;
64633;SDS011;51043;52.406;9.690;2023-04-24T04:11:36;2.53;;;1.20;;
64633;SDS011;51043;52.406;9.690;2023-04-24T04:14:04;1.03;;;1.03;;
64633;SDS011;51043;52.406;9.690;2023-04-24T04:16:34;1.47;;;1.20;;
64633;SDS011;51043;52.406;9.690;2023-04-24T04:19:04;1.83;;;1.67;;
64633;SDS011;51043;52.406;9.690;2023-04-24T04:21:33;1.57;;;1.10;;
64633;SDS011;51043;52.406;9.690;2023-04-24T04:24:20;1.20;;;1.10;;
64633;SDS011;51043;52.406;9.690;2023-04-24T04:26:49;2.53;;;1.10;;
64633;SDS011;51043;52.406;9.690;2023-04-24T04:29:29;1.37;;;1.20;;
64633;SDS011;51043;52.406;9.690;2023-04-24T04:31:57;1.00;;;1.00;;
64633;SDS011;51043;52.406;9.690;2023-04-24T04:34:26;1.10;;;1.00;;
64633;SDS011;51043;52.406;9.690;2023-04-24T04:36:55;3.83;;;1.00;;
64633;SDS011;51043;52.406;9.690;2023-04-24T04:39:59;2.43;;;1.20;;
64633;SDS011;51043;52.406;9.690;2023-04-24T04:42:38;2.03;;;1.00;;
64633;SDS011;51043;52.406;9.690;2023-04-24T04:45:07;1.93;;;1.30;;
64633;SDS011;51043;52.406;9.690;2023-04-24T04:47:50;2.77;;;1.60;;
64633;SDS011;51043;52.406;9.690;2023-04-24T04:50:19;1.97;;;1.40;;
64633;SDS011;51043;52.406;9.690;2023-04-24T04:52:49;1.37;;;1.10;;
64633;SDS011;51043;52.406;9.690;2023-04-24T04:55:25;1.80;;;1.20;;
64633;SDS011;51043;52.406;9.690;2023-04-24T04:58:07;1.27;;;1.10;;
64633;SDS011;51043;52.406;9.690;2023-04-24T05:00:35;1.90;;;1.23;;
64633;SDS011;51043;52.406;9.690;2023-04-24T05:03:13;2.20;;;1.40;;
64633;SDS011;51043;52.406;9.690;2023-04-24T05:05:47;1.73;;;1.20;;
64633;SDS011;51043;52.406;9.690;2023-04-24T05:08:16;3.60;;;1.00;;
64633;SDS011;51043;52.406;9.690;2023-04-24T05:10:53;3.20;;;1.07;;
64633;SDS011;51043;52.406;9.690;2023-04-24T05:13:23;4.93;;;1.23;;
64633;SDS011;51043;52.406;9.690;2023-04-24T05:15:58;1.63;;;1.10;;
64633;SDS011;51043;52.406;9.690;2023-04-24T05:18:27;1.87;;;1.10;;
64633;SDS011;51043;52.406;9.690;2023-04-24T05:20:57;2.90;;;1.20;;
64633;SDS011;51043;52.406;9.690;2023-04-24T05:23:25;1.10;;;1.00;;
64633;SDS011;51043;52.406;9.690;2023-04-24T05:25:56;1.50;;;0.90;;
64633;SDS011;51043;52.406;9.690;2023-04-24T05:28:24;1.00;;;0.90;;
64633;SDS011;51043;52.406;9.690;2023-04-24T05:31:05;1.33;;;1.17;;
64633;SDS011;51043;52.406;9.690;2023-04-24T05:33:33;2.43;;;1.20;;
64633;SDS011;51043;52.406;9.690;2023-04-24T05:36:02;2.47;;;1.20;;
64633;SDS011;51043;52.406;9.690;2023-04-24T05:38:32;2.87;;;1.10;;
64633;SDS011;51043;52.406;9.690;2023-04-24T05:41:02;2.40;;;1.03;;
64633;SDS011;51043;52.406;9.690;2023-04-24T05:43:30;4.13;;;1.30;;
64633;SDS011;51043;52.406;9.690;2023-04-24T05:45:58;2.70;;;1.10;;
64633;SDS011;51043;52.406;9.690;2023-04-24T05:48:27;2.33;;;1.10;;
64633;SDS011;51043;52.406;9.690;2023-04-24T05:50:55;1.10;;;1.00;;
64633;SDS011;51043;52.406;9.690;2023-04-24T05:53:24;2.40;;;1.50;;
64633;SDS011;51043;52.406;9.690;2023-04-24T05:55:51;2.37;;;1.40;;
64633;SDS011;51043;52.406;9.690;2023-04-24T05:58:21;3.97;;;1.27;;
64633;SDS011;51043;52.406;9.690;2023-04-24T06:00:49;1.63;;;1.20;;
64633;SDS011;51043;52.406;9.690;2023-04-24T06:03:17;4.27;;;1.30;;
64633;SDS011;51043;52.406;9.690;2023-04-24T06:05:47;1.50;;;1.40;;
64633;SDS011;51043;52.406;9.690;2023-04-24T06:08:17;1.87;;;1.30;;
64633;SDS011;51043;52.406;9.690;2023-04-24T06:10:46;1.37;;;1.20;;
64633;SDS011;51043;52.406;9.690;2023-04-24T06:13:16;1.63;;;1.30;;
64633;SDS011;51043;52.406;9.690;2023-04-24T06:16:03;2.23;;;1.37;;
64633;SDS011;51043;52.406;9.690;2023-04-24T06:18:35;4.37;;;1.30;;
64633;SDS011;51043;52.406;9.690;2023-04-24T06:21:03;4.30;;;1.50;;
64633;SDS011;51043;52.406;9.690;2023-04-24T06:23:31;2.30;;;1.37;;
64633;SDS011;51043;52.406;9.690;2023-04-24T06:26:00;3.10;;;1.80;;
64633;SDS011;51043;52.406;9.690;2023-04-24T06:28:28;1.63;;;1.43;;
64633;SDS011;51043;52.406;9.690;2023-04-24T06:30:57;3.67;;;1.80;;
64633;SDS011;51043;52.406;9.690;2023-04-24T06:33:26;2.70;;;1.90;;
64633;SDS011;51043;52.406;9.690;2023-04-24T06:35:54;3.37;;;1.60;;
64633;SDS011;51043;52.406;9.690;2023-04-24T06:38:22;2.53;;;1.97;;
64633;SDS011;51043;52.406;9.690;2023-04-24T06:40:50;3.37;;;1.50;;
64633;SDS011;51043;52.406;9.690;2023-04-24T06:43:18;1.80;;;1.63;;
64633;SDS011;51043;52.406;9.690;2023-04-24T06:45:46;2.47;;;2.10;;
64633;SDS011;51043;52.406;9.690;2023-04-24T06:48:14;3.07;;;2.10;;
64633;SDS011;51043;52.406;9.690;2023-04-24T06:50:44;2.40;;;1.90;;
64633;SDS011;51043;52.406;9.690;2023-04-24T06:53:13;2.70;;;1.87;;
64633;SDS011;51043;52.406;9.690;2023-04-24T06:55:41;3.23;;;2.10;;
64633;SDS011;51043;52.406;9.690;2023-04-24T06:58:11;2.23;;;2.00;;
64633;SDS011;51043;52.406;9.690;2023-04-24T07:00:40;3.37;;;2.73;;
64633;SDS011;51043;52.406;9.690;2023-04-24T07:03:08;4.53;;;2.90;;
64633;SDS011;51043;52.406;9.690;2023-04-24T07:05:36;3.40;;;2.73;;
64633;SDS011;51043;52.406;9.690;2023-04-24T07:08:06;2.87;;;2.40;;
64633;SDS011;51043;52.406;9.690;2023-04-24T07:10:34;2.93;;;2.63;;
64633;SDS011;51043;52.406;9.690;2023-04-24T07:13:03;3.70;;;2.37;;
64633;SDS011;51043;52.406;9.690;2023-04-24T07:15:31;3.17;;;2.70;;
64633;SDS011;51043;52.406;9.690;2023-04-24T07:18:00;4.67;;;2.93;;
64633;SDS011;51043;52.406;9.690;2023-04-24T07:20:30;2.97;;;2.70;;
64633;SDS011;51043;52.406;9.690;2023-04-24T07:22:59;4.53;;;2.97;;
64633;SDS011;51043;52.406;9.690;2023-04-24T07:25:29;4.53;;;3.07;;
64633;SDS011;51043;52.406;9.690;2023-04-24T07:27:58;3.33;;;3.03;;
64633;SDS011;51043;52.406;9.690;2023-04-24T07:30:26;3.90;;;3.30;;
64633;SDS011;51043;52.406;9.690;2023-04-24T07:32:55;4.83;;;3.70;;
64633;SDS011;51043;52.406;9.690;2023-04-24T07:35:23;4.17;;;3.50;;
64633;SDS011;51043;52.406;9.690;2023-04-24T07:37:52;5.93;;;4.00;;
64633;SDS011;51043;52.406;9.690;2023-04-24T07:40:20;6.23;;;4.20;;
64633;SDS011;51043;52.406;9.690;2023-04-24T07:42:50;4.03;;;3.60;;
64633;SDS011;51043;52.406;9.690;2023-04-24T07:45:18;5.80;;;3.50;;
64633;SDS011;51043;52.406;9.690;2023-04-24T07:47:47;3.23;;;2.80;;
64633;SDS011;51043;52.406;9.690;2023-04-24T07:50:15;8.83;;;4.30;;
64633;SDS011;51043;52.406;9.690;2023-04-24T07:52:43;5.87;;;4.33;;
64633;SDS011;51043;52.406;9.690;2023-04-24T07:55:11;4.73;;;4.20;;
64633;SDS011;51043;52.406;9.690;2023-04-24T07:57:39;5.27;;;4.33;;
64633;SDS011;51043;52.406;9.690;2023-04-24T08:00:09;7.77;;;5.33;;
64633;SDS011;51043;52.406;9.690;2023-04-24T08:02:37;5.77;;;4.13;;
64633;SDS011;51043;52.406;9.690;2023-04-24T08:05:06;6.27;;;4.00;;
64633;SDS011;51043;52.406;9.690;2023-04-24T08:07:34;10.47;;;4.73;;
64633;SDS011;51043;52.406;9.690;2023-04-24T08:10:03;6.60;;;4.17;;
64633;SDS011;51043;52.406;9.690;2023-04-24T08:12:31;7.33;;;4.57;;
64633;SDS011;51043;52.406;9.690;2023-04-24T08:15:00;7.53;;;5.30;;
64633;SDS011;51043;52.406;9.690;2023-04-24T08:17:29;8.17;;;4.73;;
64633;SDS011;51043;52.406;9.690;2023-04-24T08:20:00;7.57;;;5.70;;
64633;SDS011;51043;52.406;9.690;2023-04-24T08:22:28;7.27;;;5.23;;
64633;SDS011;51043;52.406;9.690;2023-04-24T08:24:59;6.30;;;5.67;;
64633;SDS011;51043;52.406;9.690;2023-04-24T08:27:27;8.63;;;6.30;;
64633;SDS011;51043;52.406;9.690;2023-04-24T08:29:56;6.83;;;5.37;;
64633;SDS011;51043;52.406;9.690;2023-04-24T08:32:24;6.73;;;4.63;;
64633;SDS011;51043;52.406;9.690;2023-04-24T08:34:55;5.20;;;4.03;;
64633;SDS011;51043;52.406;9.690;2023-04-24T08:37:23;11.23;;;5.20;;
64633;SDS011;51043;52.406;9.690;2023-04-24T08:39:52;5.30;;;4.80;;
64633;SDS011;51043;52.406;9.690;2023-04-24T08:42:20;5.53;;;4.90;;
64633;SDS011;51043;52.406;9.690;2023-04-24T08:44:49;5.80;;;4.90;;
64633;SDS011;51043;52.406;9.690;2023-04-24T08:47:17;6.03;;;5.30;;
64633;SDS011;51043;52.406;9.690;2023-04-24T08:49:47;5.40;;;4.40;;
64633;SDS011;51043;52.406;9.690;2023-04-24T08:52:18;5.10;;;4.40;;
64633;SDS011;51043;52.406;9.690;2023-04-24T08:54:48;4.80;;;4.23;;
64633;SDS011;51043;52.406;9.690;2023-04-24T08:57:17;5.10;;;4.63;;
64633;SDS011;51043;52.406;9.690;2023-04-24T08:59:45;5.93;;;4.13;;
64633;SDS011;51043;52.406;9.690;2023-04-24T09:02:14;5.90;;;4.50;;
64633;SDS011;51043;52.406;9.690;2023-04-24T09:04:44;5.03;;;4.07;;
64633;SDS011;51043;52.406;9.690;2023-04-24T09:07:13;7.73;;;4.27;;
64633;SDS011;51043;52.406;9.690;2023-04-24T09:09:46;7.10;;;4.50;;
64633;SDS011;51043;52.406;9.690;2023-04-24T09:12:17;3.93;;;3.23;;
64633;SDS011;51043;52.406;9.690;2023-04-24T09:14:46;4.83;;;3.40;;
64633;SDS011;51043;52.406;9.690;2023-04-24T09:17:15;6.50;;;3.50;;
64633;SDS011;51043;52.406;9.690;2023-04-24T09:19:43;3.80;;;3.40;;
64633;SDS011;51043;52.406;9.690;2023-04-24T09:22:11;4.03;;;3.63;;
64633;SDS011;51043;52.406;9.690;2023-04-24T09:24:39;4.83;;;3.40;;
64633;SDS011;51043;52.406;9.690;2023-04-24T09:27:10;2.47;;;2.27;;
64633;SDS011;51043;52.406;9.690;2023-04-24T09:29:42;5.27;;;3.63;;
64633;SDS011;51043;52.406;9.690;2023-04-24T09:32:22;3.53;;;2.93;;
64633;SDS011;51043;52.406;9.690;2023-04-24T09:35:04;3.20;;;2.90;;
64633;SDS011;51043;52.406;9.690;2023-04-24T09:37:37;3.80;;;3.00;;
64633;SDS011;51043;52.406;9.690;2023-04-24T09:40:14;3.67;;;3.20;;
64633;SDS011;51043;52.406;9.690;2023-04-24T09:42:45;5.03;;;3.00;;
64633;SDS011;51043;52.406;9.690;2023-04-24T09:45:18;2.97;;;2.70;;
64633;SDS011;51043;52.406;9.690;2023-04-24T09:47:51;5.90;;;3.00;;
64633;SDS011;51043;52.406;9.690;2023-04-24T09:50:20;3.40;;;3.07;;
64633;SDS011;51043;52.406;9.690;2023-04-24T09:52:55;3.53;;;2.90;;
64633;SDS011;51043;52.406;9.690;2023-04-24T09:55:24;4.00;;;2.83;;
64633;SDS011;51043;52.406;9.690;2023-04-24T09:57:55;3.10;;;2.80;;
64633;SDS011;51043;52.406;9.690;2023-04-24T10:00:25;3.10;;;2.80;;
64633;SDS011;51043;52.406;9.690;2023-04-24T10:02:55;3.10;;;2.90;;
64633;SDS011;51043;52.406;9.690;2023-04-24T10:05:25;2.80;;;2.60;;
64633;SDS011;51043;52.406;9.690;2023-04-24T10:08:00;3.23;;;2.57;;
64633;SDS011;51043;52.406;9.690;2023-04-24T10:10:30;3.10;;;2.80;;
64633;SDS011;51043;52.406;9.690;2023-04-24T10:13:00;3.20;;;2.83;;
64633;SDS011;51043;52.406;9.690;2023-04-24T10:15:29;4.03;;;2.90;;
64633;SDS011;51043;52.406;9.690;2023-04-24T10:17:58;3.97;;;2.90;;
64633;SDS011;51043;52.406;9.690;2023-04-24T10:20:27;4.07;;;2.80;;
64633;SDS011;51043;52.406;9.690;2023-04-24T10:22:57;2.60;;;2.40;;
64633;SDS011;51043;52.406;9.690;2023-04-24T10:25:27;3.40;;;2.50;;
64633;SDS011;51043;52.406;9.690;2023-04-24T10:27:57;3.87;;;2.50;;
64633;SDS011;51043;52.406;9.690;2023-04-24T10:30:28;2.73;;;2.40;;
64633;SDS011;51043;52.406;9.690;2023-04-24T10:33:01;3.83;;;2.90;;
64633;SDS011;51043;52.406;9.690;2023-04-24T10:35:31;2.93;;;2.50;;
64633;SDS011;51043;52.406;9.690;2023-04-24T10:38:01;3.93;;;2.43;;
64633;SDS011;51043;52.406;9.690;2023-04-24T10:40:33;2.40;;;2.13;;
64633;SDS011;51043;52.406;9.690;2023-04-24T10:43:03;3.57;;;2.40;;
64633;SDS011;51043;52.406;9.690;2023-04-24T10:45:35;2.63;;;2.30;;
64633;SDS011;51043;52.406;9.690;2023-04-24T10:48:07;3.67;;;2.43;;
64633;SDS011;51043;52.406;9.690;2023-04-24T10:50:43;2.67;;;2.20;;
64633;SDS011;51043;52.406;9.690;2023-04-24T10:53:13;1.70;;;1.60;;
64633;SDS011;51043;52.406;9.690;2023-04-24T10:55:44;2.17;;;1.97;;
64633;SDS011;51043;52.406;9.690;2023-04-24T10:58:13;3.47;;;1.70;;
64633;SDS011;51043;52.406;9.690;2023-04-24T11:00:48;3.40;;;1.80;;
64633;SDS011;51043;52.406;9.690;2023-04-24T11:03:24;2.13;;;1.90;;
64633;SDS011;51043;52.406;9.690;2023-04-24T11:05:58;3.03;;;2.03;;
64633;SDS011;51043;52.406;9.690;2023-04-24T11:08:29;2.60;;;2.07;;
64633;SDS011;51043;52.406;9.690;2023-04-24T11:11:04;2.17;;;1.87;;
64633;SDS011;51043;52.406;9.690;2023-04-24T11:16:32;2.40;;;1.97;;
64633;SDS011;51043;52.406;9.690;2023-04-24T11:19:05;1.93;;;1.70;;
64633;SDS011;51043;52.406;9.690;2023-04-24T11:21:41;2.87;;;1.90;;
64633;SDS011;51043;52.406;9.690;2023-04-24T11:24:24;2.63;;;2.13;;
64633;SDS011;51043;52.406;9.690;2023-04-24T11:26:57;3.10;;;2.00;;
64633;SDS011;51043;52.406;9.690;2023-04-24T11:29:40;2.57;;;1.87;;
64633;SDS011;51043;52.406;9.690;2023-04-24T11:32:24;2.40;;;1.83;;
64633;SDS011;51043;52.406;9.690;2023-04-24T11:34:54;2.70;;;1.83;;
64633;SDS011;51043;52.406;9.690;2023-04-24T11:37:24;1.67;;;1.57;;
64633;SDS011;51043;52.406;9.690;2023-04-24T11:39:55;1.70;;;1.60;;
64633;SDS011;51043;52.406;9.690;2023-04-24T11:42:25;1.60;;;1.50;;
64633;SDS011;51043;52.406;9.690;2023-04-24T11:44:54;1.80;;;1.53;;
64633;SDS011;51043;52.406;9.690;2023-04-24T11:47:30;1.40;;;1.30;;
64633;SDS011;51043;52.406;9.690;2023-04-24T11:50:00;4.20;;;1.30;;
64633;SDS011;51043;52.406;9.690;2023-04-24T11:52:29;1.67;;;1.37;;
64633;SDS011;51043;52.406;9.690;2023-04-24T11:54:57;1.57;;;1.30;;
64633;SDS011;51043;52.406;9.690;2023-04-24T11:57:27;2.67;;;1.00;;
64633;SDS011;51043;52.406;9.690;2023-04-24T11:59:59;1.07;;;1.07;;
64633;SDS011;51043;52.406;9.690;2023-04-24T12:02:39;0.90;;;0.90;;
64633;SDS011;51043;52.406;9.690;2023-04-24T12:05:07;2.00;;;1.10;;
64633;SDS011;51043;52.406;9.690;2023-04-24T12:07:39;1.20;;;1.10;;
64633;SDS011;51043;52.406;9.690;2023-04-24T12:10:10;1.20;;;1.10;;
64633;SDS011;51043;52.406;9.690;2023-04-24T12:12:38;0.97;;;0.93;;
64633;SDS011;51043;52.406;9.690;2023-04-24T12:15:07;2.63;;;0.60;;
64633;SDS011;51043;52.406;9.690;2023-04-24T12:17:36;3.80;;;1.00;;
64633;SDS011;51043;52.406;9.690;2023-04-24T12:20:10;1.00;;;1.00;;
64633;SDS011;51043;52.406;9.690;2023-04-24T12:22:43;0.90;;;0.90;;
64633;SDS011;51043;52.406;9.690;2023-04-24T12:25:13;1.27;;;0.90;;
64633;SDS011;51043;52.406;9.690;2023-04-24T12:27:42;2.90;;;1.17;;
64633;SDS011;51043;52.406;9.690;2023-04-24T12:30:12;4.00;;;1.20;;
64633;SDS011;51043;52.406;9.690;2023-04-24T12:32:43;1.97;;;1.07;;
64633;SDS011;51043;52.406;9.690;2023-04-24T12:35:12;1.30;;;1.20;;
64633;SDS011;51043;52.406;9.690;2023-04-24T12:37:42;2.40;;;1.23;;
64633;SDS011;51043;52.406;9.690;2023-04-24T12:40:12;1.40;;;1.30;;
64633;SDS011;51043;52.406;9.690;2023-04-24T12:42:42;1.63;;;1.37;;
64633;SDS011;51043;52.406;9.690;2023-04-24T12:45:11;1.10;;;1.10;;
64633;SDS011;51043;52.406;9.690;2023-04-24T12:47:40;1.43;;;1.27;;
64633;SDS011;51043;52.406;9.690;2023-04-24T12:50:11;3.53;;;1.70;;
64633;SDS011;51043;52.406;9.690;2023-04-24T12:52:40;1.60;;;1.37;;
64633;SDS011;51043;52.406;9.690;2023-04-24T12:55:09;1.47;;;1.30;;
64633;SDS011;51043;52.406;9.690;2023-04-24T12:57:38;1.17;;;1.10;;
64633;SDS011;51043;52.406;9.690;2023-04-24T13:00:08;1.43;;;1.33;;
64633;SDS011;51043;52.406;9.690;2023-04-24T13:02:47;1.20;;;1.10;;
64633;SDS011;51043;52.406;9.690;2023-04-24T13:05:29;1.87;;;1.17;;
64633;SDS011;51043;52.406;9.690;2023-04-24T13:07:58;1.17;;;1.13;;
64633;SDS011;51043;52.406;9.690;2023-04-24T13:10:26;1.43;;;1.13;;
64633;SDS011;51043;52.406;9.690;2023-04-24T13:12:55;3.23;;;1.20;;
64633;SDS011;51043;52.406;9.690;2023-04-24T13:15:23;2.60;;;1.50;;
64633;SDS011;51043;52.406;9.690;2023-04-24T13:17:52;1.53;;;1.43;;
64633;SDS011;51043;52.406;9.690;2023-04-24T13:20:20;1.57;;;1.47;;
64633;SDS011;51043;52.406;9.690;2023-04-24T13:22:48;1.77;;;1.50;;
64633;SDS011;51043;52.406;9.690;2023-04-24T13:25:16;1.50;;;1.40;;
64633;SDS011;51043;52.406;9.690;2023-04-24T13:27:45;1.50;;;1.40;;
64633;SDS011;51043;52.406;9.690;2023-04-24T13:30:13;2.43;;;1.63;;
64633;SDS011;51043;52.406;9.690;2023-04-24T13:32:41;1.50;;;1.40;;
64633;SDS011;51043;52.406;9.690;2023-04-24T13:35:11;1.63;;;1.47;;
64633;SDS011;51043;52.406;9.690;2023-04-24T13:37:38;2.10;;;1.57;;
64633;SDS011;51043;52.406;9.690;2023-04-24T13:40:07;1.40;;;1.30;;
64633;SDS011;51043;52.406;9.690;2023-04-24T13:42:36;3.30;;;1.27;;
64633;SDS011;51043;52.406;9.690;2023-04-24T13:45:05;1.23;;;1.13;;
64633;SDS011;51043;52.406;9.690;2023-04-24T13:47:39;1.20;;;1.10;;
64633;SDS011;51043;52.406;9.690;2023-04-24T13:50:08;1.50;;;1.40;;
64633;SDS011;51043;52.406;9.690;2023-04-24T13:52:38;1.17;;;1.17;;
64633;SDS011;51043;52.406;9.690;2023-04-24T13:55:07;0.93;;;0.93;;
64633;SDS011;51043;52.406;9.690;2023-04-24T13:57:35;0.87;;;0.87;;
64633;SDS011;51043;52.406;9.690;2023-04-24T14:00:04;0.60;;;0.60;;
64633;SDS011;51043;52.406;9.690;2023-04-24T14:02:36;0.83;;;0.83;;
64633;SDS011;51043;52.406;9.690;2023-04-24T14:05:05;1.20;;;1.10;;
64633;SDS011;51043;52.406;9.690;2023-04-24T14:07:35;0.87;;;0.80;;
64633;SDS011;51043;52.406;9.690;2023-04-24T14:10:07;1.27;;;1.00;;
64633;SDS011;51043;52.406;9.690;2023-04-24T14:12:36;2.37;;;1.00;;
64633;SDS011;51043;52.406;9.690;2023-04-24T14:15:09;1.20;;;1.10;;
64633;SDS011;51043;52.406;9.690;2023-04-24T14:17:39;4.80;;;1.57;;
64633;SDS011;51043;52.406;9.690;2023-04-24T14:20:08;1.50;;;1.40;;
64633;SDS011;51043;52.406;9.690;2023-04-24T14:22:41;3.37;;;1.80;;
64633;SDS011;51043;52.406;9.690;2023-04-24T14:25:09;3.17;;;1.70;;
64633;SDS011;51043;52.406;9.690;2023-04-24T14:27:41;4.67;;;1.93;;
64633;SDS011;51043;52.406;9.690;2023-04-24T14:30:09;2.97;;;2.60;;
64633;SDS011;51043;52.406;9.690;2023-04-24T14:32:39;2.60;;;1.80;;
64633;SDS011;51043;52.406;9.690;2023-04-24T14:35:07;3.70;;;2.23;;
64633;SDS011;51043;52.406;9.690;2023-04-24T14:37:36;4.23;;;2.27;;
64633;SDS011;51043;52.406;9.690;2023-04-24T14:40:06;4.37;;;2.63;;
64633;SDS011;51043;52.406;9.690;2023-04-24T14:42:41;5.80;;;2.33;;
64633;SDS011;51043;52.406;9.690;2023-04-24T14:45:09;4.33;;;2.73;;
64633;SDS011;51043;52.406;9.690;2023-04-24T14:47:37;3.87;;;2.30;;
64633;SDS011;51043;52.406;9.690;2023-04-24T14:50:08;1.97;;;1.77;;
64633;SDS011;51043;52.406;9.690;2023-04-24T14:52:37;3.37;;;2.17;;
64633;SDS011;51043;52.406;9.690;2023-04-24T14:55:07;6.23;;;2.57;;
64633;SDS011;51043;52.406;9.690;2023-04-24T14:57:36;3.93;;;2.17;;
64633;SDS011;51043;52.406;9.690;2023-04-24T15:00:05;5.20;;;2.40;;
64633;SDS011;51043;52.406;9.690;2023-04-24T15:02:35;3.57;;;2.07;;
64633;SDS011;51043;52.406;9.690;2023-04-24T15:05:08;4.97;;;2.57;;
64633;SDS011;51043;52.406;9.690;2023-04-24T15:07:36;3.90;;;2.77;;
64633;SDS011;51043;52.406;9.690;2023-04-24T15:10:07;10.27;;;3.30;;